sensor_id;sensor_type;location;lat;lon;timestamp;pressure;altitude;pressure_sealevel;temperature;humidity
42811;BME280;28457;55.680;37.656;2022-07-23T00:01:44;99899.16;;;22.43;53.70
42811;BME280;28457;55.680;37.656;2022-07-23T00:04:14;99892.53;;;22.39;53.69
42811;BME280;28457;55.680;37.656;2022-07-23T00:06:43;99904.88;;;22.37;53.77
42811;BME280;28457;55.680;37.656;2022-07-23T00:09:13;99904.06;;;22.36;53.91
42811;BME280;28457;55.680;37.656;2022-07-23T00:11:41;99903.22;;;22.36;54.50
42811;BME280;28457;55.680;37.656;2022-07-23T00:14:10;99905.41;;;22.34;54.53
42811;BME280;28457;55.680;37.656;2022-07-23T00:16:38;99904.88;;;22.32;54.28
42811;BME280;28457;55.680;37.656;2022-07-23T00:19:07;99899.63;;;22.30;54.39
42811;BME280;28457;55.680;37.656;2022-07-23T00:21:35;99895.53;;;22.28;54.74
42811;BME280;28457;55.680;37.656;2022-07-23T00:24:04;99894.72;;;22.27;54.98
42811;BME280;28457;55.680;37.656;2022-07-23T00:26:34;99896.31;;;22.23;54.64
42811;BME280;28457;55.680;37.656;2022-07-23T00:29:03;99900.44;;;22.20;54.67
42811;BME280;28457;55.680;37.656;2022-07-23T00:31:31;99891.09;;;22.16;54.72
42811;BME280;28457;55.680;37.656;2022-07-23T00:34:00;99901.50;;;22.14;54.53
42811;BME280;28457;55.680;37.656;2022-07-23T00:36:29;99903.91;;;22.11;54.53
42811;BME280;28457;55.680;37.656;2022-07-23T00:38:58;99907.19;;;22.08;54.63
42811;BME280;28457;55.680;37.656;2022-07-23T00:41:27;99908.81;;;22.04;54.74
42811;BME280;28457;55.680;37.656;2022-07-23T00:44:14;99908.81;;;22.04;54.96
42811;BME280;28457;55.680;37.656;2022-07-23T00:46:45;99909.09;;;22.02;55.14
42811;BME280;28457;55.680;37.656;2022-07-23T00:49:14;99911.78;;;21.97;55.09
42811;BME280;28457;55.680;37.656;2022-07-23T00:51:43;99902.16;;;21.94;55.29
42811;BME280;28457;55.680;37.656;2022-07-23T01:06:18;99903.72;;;22.17;54.23
42811;BME280;28457;55.680;37.656;2022-07-23T01:08:47;99910.44;;;22.05;54.92
42811;BME280;28457;55.680;37.656;2022-07-23T01:11:17;99913.19;;;21.99;55.00
42811;BME280;28457;55.680;37.656;2022-07-23T01:13:46;99911.22;;;21.95;55.07
42811;BME280;28457;55.680;37.656;2022-07-23T01:16:15;99912.03;;;21.90;55.30
42811;BME280;28457;55.680;37.656;2022-07-23T01:18:44;99910.38;;;21.89;55.38
42811;BME280;28457;55.680;37.656;2022-07-23T01:21:13;99909.25;;;21.85;55.65
42811;BME280;28457;55.680;37.656;2022-07-23T01:23:43;99907.03;;;21.82;55.52
42811;BME280;28457;55.680;37.656;2022-07-23T01:26:12;99901.47;;;21.72;55.63
42811;BME280;28457;55.680;37.656;2022-07-23T01:28:43;99907.25;;;21.70;55.68
42811;BME280;28457;55.680;37.656;2022-07-23T01:31:12;99903.94;;;21.68;55.44
42811;BME280;28457;55.680;37.656;2022-07-23T01:33:40;99906.38;;;21.65;55.38
42811;BME280;28457;55.680;37.656;2022-07-23T01:36:09;99899.25;;;21.64;55.19
42811;BME280;28457;55.680;37.656;2022-07-23T01:38:38;99900.31;;;21.63;55.79
42811;BME280;28457;55.680;37.656;2022-07-23T01:41:08;99903.91;;;21.63;55.42
42811;BME280;28457;55.680;37.656;2022-07-23T01:43:39;99905.25;;;21.61;55.84
42811;BME280;28457;55.680;37.656;2022-07-23T01:46:08;99905.78;;;21.63;55.74
42811;BME280;28457;55.680;37.656;2022-07-23T01:48:41;99915.13;;;21.62;55.64
42811;BME280;28457;55.680;37.656;2022-07-23T01:51:36;99906.34;;;21.60;56.10
42811;BME280;28457;55.680;37.656;2022-07-23T01:54:25;99907.16;;;21.60;56.02
42811;BME280;28457;55.680;37.656;2022-07-23T01:56:55;99908.00;;;21.61;56.09
42811;BME280;28457;55.680;37.656;2022-07-23T01:59:24;99916.47;;;21.59;56.21
42811;BME280;28457;55.680;37.656;2022-07-23T02:01:53;99907.38;;;21.54;56.43
42811;BME280;28457;55.680;37.656;2022-07-23T02:04:23;99903.31;;;21.56;56.40
42811;BME280;28457;55.680;37.656;2022-07-23T02:06:53;99899.72;;;21.56;56.06
42811;BME280;28457;55.680;37.656;2022-07-23T02:09:21;99904.66;;;21.54;56.29
42811;BME280;28457;55.680;37.656;2022-07-23T02:11:50;99897.25;;;21.54;56.38
42811;BME280;28457;55.680;37.656;2022-07-23T02:14:20;99900.00;;;21.54;56.88
42811;BME280;28457;55.680;37.656;2022-07-23T02:16:48;99901.63;;;21.55;56.88
42811;BME280;28457;55.680;37.656;2022-07-23T02:19:18;99898.06;;;21.55;57.06
42811;BME280;28457;55.680;37.656;2022-07-23T02:21:47;99905.75;;;21.52;56.92
42811;BME280;28457;55.680;37.656;2022-07-23T02:24:18;99908.19;;;21.49;57.11
42811;BME280;28457;55.680;37.656;2022-07-23T02:26:47;99902.72;;;21.49;57.22
42811;BME280;28457;55.680;37.656;2022-07-23T02:29:16;99909.81;;;21.50;57.59
42811;BME280;28457;55.680;37.656;2022-07-23T02:31:45;99902.16;;;21.52;57.74
42811;BME280;28457;55.680;37.656;2022-07-23T02:34:14;99909.53;;;21.46;57.34
42811;BME280;28457;55.680;37.656;2022-07-23T02:36:43;99901.31;;;21.46;57.58
42811;BME280;28457;55.680;37.656;2022-07-23T02:39:12;99908.44;;;21.47;57.57
42811;BME280;28457;55.680;37.656;2022-07-23T02:41:41;99909.53;;;21.46;57.38
42811;BME280;28457;55.680;37.656;2022-07-23T02:44:10;99905.97;;;21.46;57.65
42811;BME280;28457;55.680;37.656;2022-07-23T02:46:42;99903.78;;;21.48;57.61
42811;BME280;28457;55.680;37.656;2022-07-23T02:49:12;99902.44;;;21.50;57.55
42811;BME280;28457;55.680;37.656;2022-07-23T02:51:41;99902.72;;;21.49;57.50
42811;BME280;28457;55.680;37.656;2022-07-23T02:54:11;99907.91;;;21.50;57.83
42811;BME280;28457;55.680;37.656;2022-07-23T02:56:39;99904.06;;;21.51;57.63
42811;BME280;28457;55.680;37.656;2022-07-23T02:59:08;99907.91;;;21.50;57.49
42811;BME280;28457;55.680;37.656;2022-07-23T03:01:36;99911.22;;;21.52;57.77
42811;BME280;28457;55.680;37.656;2022-07-23T03:04:06;99911.22;;;21.52;57.81
42811;BME280;28457;55.680;37.656;2022-07-23T03:06:36;99916.72;;;21.52;57.96
42811;BME280;28457;55.680;37.656;2022-07-23T03:09:05;99909.84;;;21.55;57.80
42811;BME280;28457;55.680;37.656;2022-07-23T03:11:33;99915.91;;;21.57;58.13
42811;BME280;28457;55.680;37.656;2022-07-23T03:14:02;99912.66;;;21.60;58.04
42811;BME280;28457;55.680;37.656;2022-07-23T03:16:31;99910.44;;;21.62;57.95
42811;BME280;28457;55.680;37.656;2022-07-23T03:19:00;99912.69;;;21.65;57.99
42811;BME280;28457;55.680;37.656;2022-07-23T03:21:32;99916.00;;;21.67;58.04
42811;BME280;28457;55.680;37.656;2022-07-23T03:24:03;99908.88;;;21.71;57.97
42811;BME280;28457;55.680;37.656;2022-07-23T03:26:32;99915.22;;;21.77;58.02
42811;BME280;28457;55.680;37.656;2022-07-23T03:29:00;99918.25;;;21.81;58.00
42811;BME280;28457;55.680;37.656;2022-07-23T03:31:31;99927.63;;;21.85;57.84
42811;BME280;28457;55.680;37.656;2022-07-23T03:34:00;99923.50;;;21.87;57.74
42811;BME280;28457;55.680;37.656;2022-07-23T03:36:29;99922.44;;;21.88;57.83
42811;BME280;28457;55.680;37.656;2022-07-23T03:38:58;99922.47;;;21.93;57.92
42811;BME280;28457;55.680;37.656;2022-07-23T03:41:29;99916.69;;;21.95;57.96
42811;BME280;28457;55.680;37.656;2022-07-23T03:43:58;99918.09;;;21.97;58.35
42811;BME280;28457;55.680;37.656;2022-07-23T03:46:27;99923.06;;;22.00;58.27
42811;BME280;28457;55.680;37.656;2022-07-23T03:48:55;99920.59;;;22.04;58.32
42811;BME280;28457;55.680;37.656;2022-07-23T03:51:25;99919.25;;;22.07;58.28
42811;BME280;28457;55.680;37.656;2022-07-23T03:53:54;99918.72;;;22.10;58.20
42811;BME280;28457;55.680;37.656;2022-07-23T03:56:22;99918.19;;;22.13;57.89
42811;BME280;28457;55.680;37.656;2022-07-23T03:58:52;99921.25;;;22.16;58.26
42811;BME280;28457;55.680;37.656;2022-07-23T04:01:21;99920.72;;;22.19;57.80
42811;BME280;28457;55.680;37.656;2022-07-23T04:03:49;99928.16;;;22.24;57.94
42811;BME280;28457;55.680;37.656;2022-07-23T04:06:18;99920.22;;;22.28;57.75
42811;BME280;28457;55.680;37.656;2022-07-23T04:08:48;99924.06;;;22.32;57.49
42811;BME280;28457;55.680;37.656;2022-07-23T04:11:16;99919.97;;;22.34;57.84
42811;BME280;28457;55.680;37.656;2022-07-23T04:13:45;99917.53;;;22.38;57.59
42811;BME280;28457;55.680;37.656;2022-07-23T04:16:15;99921.09;;;22.43;57.44
42811;BME280;28457;55.680;37.656;2022-07-23T04:18:45;99925.22;;;22.46;57.54
42811;BME280;28457;55.680;37.656;2022-07-23T04:21:17;99927.44;;;22.49;57.53
42811;BME280;28457;55.680;37.656;2022-07-23T04:23:46;99924.47;;;22.56;57.60
42811;BME280;28457;55.680;37.656;2022-07-23T04:26:15;99928.56;;;22.58;57.62
42811;BME280;28457;55.680;37.656;2022-07-23T04:28:46;99927.78;;;22.63;57.40
42811;BME280;28457;55.680;37.656;2022-07-23T04:31:16;99926.13;;;22.67;57.90
42811;BME280;28457;55.680;37.656;2022-07-23T04:33:44;99923.69;;;22.70;57.79
42811;BME280;28457;55.680;37.656;2022-07-23T04:36:13;99926.72;;;22.74;57.88
42811;BME280;28457;55.680;37.656;2022-07-23T04:38:41;99922.56;;;22.77;57.58
42811;BME280;28457;55.680;37.656;2022-07-23T04:41:10;99918.22;;;22.81;57.07
42811;BME280;28457;55.680;37.656;2022-07-23T04:43:39;99923.13;;;22.84;57.21
42811;BME280;28457;55.680;37.656;2022-07-23T04:46:08;99923.16;;;22.89;57.43
42811;BME280;28457;55.680;37.656;2022-07-23T04:48:46;99922.06;;;22.90;56.68
42811;BME280;28457;55.680;37.656;2022-07-23T04:51:17;99917.72;;;22.94;56.59
42811;BME280;28457;55.680;37.656;2022-07-23T04:53:45;99913.31;;;22.98;57.02
42811;BME280;28457;55.680;37.656;2022-07-23T04:56:14;99905.38;;;23.02;56.85
42811;BME280;28457;55.680;37.656;2022-07-23T04:58:42;99912.50;;;23.08;56.92
42811;BME280;28457;55.680;37.656;2022-07-23T05:01:11;99908.97;;;23.12;56.43
42811;BME280;28457;55.680;37.656;2022-07-23T05:03:40;99907.84;;;23.18;56.70
42811;BME280;28457;55.680;37.656;2022-07-23T05:06:10;99895.22;;;23.23;56.48
42811;BME280;28457;55.680;37.656;2022-07-23T05:08:38;99895.22;;;23.28;56.51
42811;BME280;28457;55.680;37.656;2022-07-23T05:11:09;99896.03;;;23.33;56.40
42811;BME280;28457;55.680;37.656;2022-07-23T05:13:38;99892.47;;;23.38;55.99
42811;BME280;28457;55.680;37.656;2022-07-23T05:16:07;99896.84;;;23.44;55.40
42811;BME280;28457;55.680;37.656;2022-07-23T05:18:36;99897.69;;;23.50;55.31
42811;BME280;28457;55.680;37.656;2022-07-23T05:21:05;99888.34;;;23.56;55.32
42811;BME280;28457;55.680;37.656;2022-07-23T05:23:35;99891.91;;;23.61;54.69
42811;BME280;28457;55.680;37.656;2022-07-23T05:26:04;99901.25;;;23.65;54.28
42811;BME280;28457;55.680;37.656;2022-07-23T05:28:33;99904.56;;;23.73;53.92
42811;BME280;28457;55.680;37.656;2022-07-23T05:31:02;99907.31;;;23.78;53.93
42811;BME280;28457;55.680;37.656;2022-07-23T05:33:31;99903.47;;;23.84;53.47
42811;BME280;28457;55.680;37.656;2022-07-23T05:36:00;99905.09;;;23.90;53.44
42811;BME280;28457;55.680;37.656;2022-07-23T05:38:32;99908.66;;;23.96;53.25
42811;BME280;28457;55.680;37.656;2022-07-23T05:41:04;99904.25;;;24.00;52.88
42811;BME280;28457;55.680;37.656;2022-07-23T05:43:32;99907.25;;;24.03;52.70
42811;BME280;28457;55.680;37.656;2022-07-23T05:46:08;99905.03;;;24.10;52.98
42811;BME280;28457;55.680;37.656;2022-07-23T05:48:39;99900.34;;;24.16;52.75
42811;BME280;28457;55.680;37.656;2022-07-23T05:51:21;99896.75;;;24.21;52.40
42811;BME280;28457;55.680;37.656;2022-07-23T05:53:51;99894.81;;;24.26;52.26
42811;BME280;28457;55.680;37.656;2022-07-23T05:56:22;99892.84;;;24.32;52.11
42811;BME280;28457;55.680;37.656;2022-07-23T05:58:50;99898.63;;;24.35;52.08
42811;BME280;28457;55.680;37.656;2022-07-23T06:01:19;99900.53;;;24.40;52.30
42811;BME280;28457;55.680;37.656;2022-07-23T06:04:08;99891.47;;;24.45;51.70
42811;BME280;28457;55.680;37.656;2022-07-23T06:06:42;99896.66;;;24.51;51.32
42811;BME280;28457;55.680;37.656;2022-07-23T06:09:11;99893.31;;;24.54;51.53
42811;BME280;28457;55.680;37.656;2022-07-23T06:11:42;99889.44;;;24.60;51.61
42811;BME280;28457;55.680;37.656;2022-07-23T06:14:11;99897.38;;;24.67;51.44
42811;BME280;28457;55.680;37.656;2022-07-23T06:16:47;99895.44;;;24.73;51.41
42811;BME280;28457;55.680;37.656;2022-07-23T06:19:15;99886.84;;;24.79;51.18
42811;BME280;28457;55.680;37.656;2022-07-23T06:21:45;99895.34;;;24.83;50.67
42811;BME280;28457;55.680;37.656;2022-07-23T06:24:16;99895.03;;;24.90;51.36
42811;BME280;28457;55.680;37.656;2022-07-23T06:26:46;99895.56;;;24.97;50.51
42811;BME280;28457;55.680;37.656;2022-07-23T06:29:15;99884.22;;;25.03;50.36
42811;BME280;28457;55.680;37.656;2022-07-23T06:31:43;99878.69;;;25.08;50.45
42811;BME280;28457;55.680;37.656;2022-07-23T06:34:14;99874.50;;;25.16;50.09
42811;BME280;28457;55.680;37.656;2022-07-23T06:36:42;99879.16;;;25.21;50.50
42811;BME280;28457;55.680;37.656;2022-07-23T06:39:12;99876.06;;;25.27;49.96
42811;BME280;28457;55.680;37.656;2022-07-23T06:41:47;99874.91;;;25.34;49.91
42811;BME280;28457;55.680;37.656;2022-07-23T06:44:18;99866.59;;;25.39;49.75
42811;BME280;28457;55.680;37.656;2022-07-23T06:46:48;99871.22;;;25.43;49.79
42811;BME280;28457;55.680;37.656;2022-07-23T06:49:17;99869.25;;;25.49;49.20
42811;BME280;28457;55.680;37.656;2022-07-23T06:51:46;99872.81;;;25.54;49.11
42811;BME280;28457;55.680;37.656;2022-07-23T06:54:15;99877.13;;;25.61;49.11
42811;BME280;28457;55.680;37.656;2022-07-23T06:56:43;99873.22;;;25.67;48.76
42811;BME280;28457;55.680;37.656;2022-07-23T06:59:13;99871.53;;;25.71;48.64
42811;BME280;28457;55.680;37.656;2022-07-23T07:01:42;99866.78;;;25.76;48.48
42811;BME280;28457;55.680;37.656;2022-07-23T07:04:11;99876.44;;;25.79;48.22
42811;BME280;28457;55.680;37.656;2022-07-23T07:06:39;99870.88;;;25.84;48.35
42811;BME280;28457;55.680;37.656;2022-07-23T07:09:08;99871.63;;;25.90;48.50
42811;BME280;28457;55.680;37.656;2022-07-23T07:11:36;99869.09;;;25.93;48.17
42811;BME280;28457;55.680;37.656;2022-07-23T07:14:05;99864.66;;;25.97;47.67
42811;BME280;28457;55.680;37.656;2022-07-23T07:16:35;99867.34;;;26.02;47.83
42811;BME280;28457;55.680;37.656;2022-07-23T07:19:03;99863.69;;;26.07;47.78
42811;BME280;28457;55.680;37.656;2022-07-23T07:21:32;99870.56;;;26.10;47.46
42811;BME280;28457;55.680;37.656;2022-07-23T07:24:01;99861.41;;;26.14;47.07
42811;BME280;28457;55.680;37.656;2022-07-23T07:26:29;99863.88;;;26.16;46.64
42811;BME280;28457;55.680;37.656;2022-07-23T07:28:58;99863.00;;;26.20;47.13
42811;BME280;28457;55.680;37.656;2022-07-23T07:31:28;99864.84;;;26.25;47.43
42811;BME280;28457;55.680;37.656;2022-07-23T07:33:58;99872.56;;;26.28;46.42
42811;BME280;28457;55.680;37.656;2022-07-23T07:36:26;99870.25;;;26.35;46.89
42811;BME280;28457;55.680;37.656;2022-07-23T07:38:55;99883.19;;;26.40;46.94
42811;BME280;28457;55.680;37.656;2022-07-23T07:41:23;99882.84;;;26.46;46.76
42811;BME280;28457;55.680;37.656;2022-07-23T07:43:53;99874.78;;;26.50;46.95
42811;BME280;28457;55.680;37.656;2022-07-23T07:46:21;99872.25;;;26.54;46.35
42811;BME280;28457;55.680;37.656;2022-07-23T07:48:51;99863.91;;;26.59;46.10
42811;BME280;28457;55.680;37.656;2022-07-23T07:51:25;99862.78;;;26.60;43.94
42811;BME280;28457;55.680;37.656;2022-07-23T07:53:54;99865.75;;;26.63;45.66
42811;BME280;28457;55.680;37.656;2022-07-23T07:56:23;99870.38;;;26.68;45.38
42811;BME280;28457;55.680;37.656;2022-07-23T07:58:52;99870.63;;;26.71;44.79
42811;BME280;28457;55.680;37.656;2022-07-23T08:01:20;99865.31;;;26.75;45.52
42811;BME280;28457;55.680;37.656;2022-07-23T08:03:49;99867.47;;;26.78;44.83
42811;BME280;28457;55.680;37.656;2022-07-23T08:06:17;99863.84;;;26.83;45.41
42811;BME280;28457;55.680;37.656;2022-07-23T08:08:48;99872.63;;;26.85;44.22
42811;BME280;28457;55.680;37.656;2022-07-23T08:11:17;99862.94;;;26.87;44.94
42811;BME280;28457;55.680;37.656;2022-07-23T08:13:45;99873.41;;;26.90;44.59
42811;BME280;28457;55.680;37.656;2022-07-23T08:16:14;99865.59;;;26.92;44.88
42811;BME280;28457;55.680;37.656;2022-07-23T08:18:43;99865.31;;;26.94;45.42
42811;BME280;28457;55.680;37.656;2022-07-23T08:21:11;99857.84;;;26.94;45.50
42811;BME280;28457;55.680;37.656;2022-07-23T08:23:40;99865.00;;;26.95;45.02
42811;BME280;28457;55.680;37.656;2022-07-23T08:26:10;99865.53;;;26.97;45.56
42811;BME280;28457;55.680;37.656;2022-07-23T08:28:38;99864.94;;;27.01;44.84
42811;BME280;28457;55.680;37.656;2022-07-23T08:31:07;99865.66;;;27.06;44.68
42811;BME280;28457;55.680;37.656;2022-07-23T08:33:38;99867.78;;;27.14;44.59
42811;BME280;28457;55.680;37.656;2022-07-23T08:36:07;99860.22;;;27.20;43.34
42811;BME280;28457;55.680;37.656;2022-07-23T08:38:36;99847.66;;;27.28;41.41
42811;BME280;28457;55.680;37.656;2022-07-23T08:41:07;99853.31;;;27.36;43.54
42811;BME280;28457;55.680;37.656;2022-07-23T08:43:37;99846.88;;;27.41;43.95
42811;BME280;28457;55.680;37.656;2022-07-23T08:46:07;99843.72;;;27.48;42.48
42811;BME280;28457;55.680;37.656;2022-07-23T08:48:36;99846.38;;;27.53;43.35
42811;BME280;28457;55.680;37.656;2022-07-23T08:51:07;99844.03;;;27.60;43.58
42811;BME280;28457;55.680;37.656;2022-07-23T08:53:37;99846.94;;;27.68;43.69
42811;BME280;28457;55.680;37.656;2022-07-23T08:56:07;99840.72;;;27.77;43.49
42811;BME280;28457;55.680;37.656;2022-07-23T08:58:38;99842.75;;;27.85;43.82
42811;BME280;28457;55.680;37.656;2022-07-23T09:01:06;99833.22;;;27.91;43.17
42811;BME280;28457;55.680;37.656;2022-07-23T09:03:36;99834.16;;;28.00;43.65
42811;BME280;28457;55.680;37.656;2022-07-23T09:06:06;99837.84;;;28.09;43.18
42811;BME280;28457;55.680;37.656;2022-07-23T09:08:36;99836.28;;;28.17;42.37
42811;BME280;28457;55.680;37.656;2022-07-23T09:11:06;99833.63;;;28.26;40.91
42811;BME280;28457;55.680;37.656;2022-07-23T09:13:39;99832.81;;;28.39;41.35
42811;BME280;28457;55.680;37.656;2022-07-23T09:16:11;99821.06;;;28.56;40.51
42811;BME280;28457;55.680;37.656;2022-07-23T09:18:43;99829.88;;;28.72;40.64
42811;BME280;28457;55.680;37.656;2022-07-23T09:21:17;99830.34;;;28.74;40.49
42811;BME280;28457;55.680;37.656;2022-07-23T09:23:49;99826.97;;;28.77;40.64
42811;BME280;28457;55.680;37.656;2022-07-23T09:26:21;99830.25;;;28.79;41.06
42811;BME280;28457;55.680;37.656;2022-07-23T09:28:54;99822.75;;;28.79;39.93
42811;BME280;28457;55.680;37.656;2022-07-23T09:31:24;99829.69;;;28.91;39.88
42811;BME280;28457;55.680;37.656;2022-07-23T09:34:06;99824.59;;;29.06;39.17
42811;BME280;28457;55.680;37.656;2022-07-23T09:36:35;99827.63;;;29.19;38.03
42811;BME280;28457;55.680;37.656;2022-07-23T09:39:05;99820.13;;;29.19;39.18
42811;BME280;28457;55.680;37.656;2022-07-23T09:41:38;99817.91;;;29.30;40.39
42811;BME280;28457;55.680;37.656;2022-07-23T09:44:09;99817.00;;;29.43;38.84
42811;BME280;28457;55.680;37.656;2022-07-23T09:46:38;99817.63;;;29.63;38.86
42811;BME280;28457;55.680;37.656;2022-07-23T09:49:15;99815.72;;;29.80;37.79
42811;BME280;28457;55.680;37.656;2022-07-23T09:51:55;99813.31;;;29.88;36.27
42811;BME280;28457;55.680;37.656;2022-07-23T09:54:27;99805.97;;;29.92;37.84
42811;BME280;28457;55.680;37.656;2022-07-23T09:56:57;99813.53;;;30.00;37.47
42811;BME280;28457;55.680;37.656;2022-07-23T09:59:29;99808.13;;;30.03;38.29
42811;BME280;28457;55.680;37.656;2022-07-23T10:01:59;99801.25;;;30.01;36.02
42811;BME280;28457;55.680;37.656;2022-07-23T10:04:33;99798.16;;;30.02;37.28
42811;BME280;28457;55.680;37.656;2022-07-23T10:07:27;99800.75;;;29.90;35.23
42811;BME280;28457;55.680;37.656;2022-07-23T10:10:04;99810.53;;;29.88;36.69
42811;BME280;28457;55.680;37.656;2022-07-23T10:12:39;99798.75;;;29.82;38.11
42811;BME280;28457;55.680;37.656;2022-07-23T10:15:32;99799.22;;;29.75;38.56
42811;BME280;28457;55.680;37.656;2022-07-23T10:18:01;99802.47;;;29.77;38.38
42811;BME280;28457;55.680;37.656;2022-07-23T10:20:29;99805.78;;;29.79;38.15
42811;BME280;28457;55.680;37.656;2022-07-23T10:23:03;99791.06;;;29.79;37.69
42811;BME280;28457;55.680;37.656;2022-07-23T10:25:39;99788.44;;;29.74;36.33
42811;BME280;28457;55.680;37.656;2022-07-23T10:28:23;99789.09;;;29.71;37.57
42811;BME280;28457;55.680;37.656;2022-07-23T10:31:02;99786.44;;;29.66;38.13
42811;BME280;28457;55.680;37.656;2022-07-23T10:33:41;99780.72;;;29.62;36.80
42811;BME280;28457;55.680;37.656;2022-07-23T10:36:19;99778.44;;;29.64;37.28
42811;BME280;28457;55.680;37.656;2022-07-23T10:38:53;99782.03;;;29.65;35.63
42811;BME280;28457;55.680;37.656;2022-07-23T10:41:34;99776.66;;;29.68;37.87
42811;BME280;28457;55.680;37.656;2022-07-23T10:44:06;99771.56;;;29.62;36.68
42811;BME280;28457;55.680;37.656;2022-07-23T10:46:54;99769.94;;;29.61;35.67
42811;BME280;28457;55.680;37.656;2022-07-23T10:49:31;99767.78;;;29.57;38.08
42811;BME280;28457;55.680;37.656;2022-07-23T10:52:17;99758.94;;;29.55;38.17
42811;BME280;28457;55.680;37.656;2022-07-23T10:54:47;99764.31;;;29.52;38.38
42811;BME280;28457;55.680;37.656;2022-07-23T10:57:18;99763.31;;;29.48;38.32
42811;BME280;28457;55.680;37.656;2022-07-23T11:00:11;99761.34;;;29.48;37.90
42811;BME280;28457;55.680;37.656;2022-07-23T11:02:42;99760.88;;;29.46;38.16
42811;BME280;28457;55.680;37.656;2022-07-23T11:05:14;99761.34;;;29.40;37.29
42811;BME280;28457;55.680;37.656;2022-07-23T11:10:56;99755.53;;;29.19;37.11
42811;BME280;28457;55.680;37.656;2022-07-23T11:13:47;99754.81;;;29.13;37.09
42811;BME280;28457;55.680;37.656;2022-07-23T11:16:21;99748.34;;;29.18;37.53
42811;BME280;28457;55.680;37.656;2022-07-23T11:19:12;99746.56;;;29.22;37.20
42811;BME280;28457;55.680;37.656;2022-07-23T11:21:58;99744.59;;;29.22;36.15
42811;BME280;28457;55.680;37.656;2022-07-23T11:24:27;99739.00;;;29.14;36.62
42811;BME280;28457;55.680;37.656;2022-07-23T11:27:01;99750.09;;;29.14;37.89
42811;BME280;28457;55.680;37.656;2022-07-23T11:29:57;99743.59;;;29.18;37.75
42811;BME280;28457;55.680;37.656;2022-07-23T11:32:36;99742.31;;;29.24;37.76
42811;BME280;28457;55.680;37.656;2022-07-23T11:35:22;99744.91;;;29.21;36.04
42811;BME280;28457;55.680;37.656;2022-07-23T11:37:51;99741.84;;;29.22;36.97
42811;BME280;28457;55.680;37.656;2022-07-23T11:40:25;99748.19;;;29.23;37.33
42811;BME280;28457;55.680;37.656;2022-07-23T11:42:57;99756.06;;;29.29;37.33
42811;BME280;28457;55.680;37.656;2022-07-23T11:45:31;99742.47;;;29.19;35.68
42811;BME280;28457;55.680;37.656;2022-07-23T11:48:00;99737.59;;;29.25;37.53
42811;BME280;28457;55.680;37.656;2022-07-23T11:50:30;99737.09;;;29.23;35.60
42811;BME280;28457;55.680;37.656;2022-07-23T11:52:58;99733.81;;;29.21;36.19
42811;BME280;28457;55.680;37.656;2022-07-23T11:55:27;99732.19;;;29.20;35.94
42811;BME280;28457;55.680;37.656;2022-07-23T11:57:56;99733.31;;;29.19;36.18
42811;BME280;28457;55.680;37.656;2022-07-23T12:00:28;99731.69;;;29.18;37.37
42811;BME280;28457;55.680;37.656;2022-07-23T12:02:59;99727.44;;;29.20;36.55
42811;BME280;28457;55.680;37.656;2022-07-23T12:05:31;99725.50;;;29.21;37.64
42811;BME280;28457;55.680;37.656;2022-07-23T12:08:02;99726.69;;;29.28;37.36
42811;BME280;28457;55.680;37.656;2022-07-23T12:10:34;99725.66;;;29.24;35.93
42811;BME280;28457;55.680;37.656;2022-07-23T12:13:04;99710.69;;;29.25;36.78
42811;BME280;28457;55.680;37.656;2022-07-23T12:15:36;99717.22;;;29.29;37.83
42811;BME280;28457;55.680;37.656;2022-07-23T12:18:08;99710.41;;;29.35;38.29
42811;BME280;28457;55.680;37.656;2022-07-23T12:20:39;99705.22;;;29.43;38.61
42811;BME280;28457;55.680;37.656;2022-07-23T12:23:10;99709.78;;;29.47;38.20
42811;BME280;28457;55.680;37.656;2022-07-23T12:25:44;99706.53;;;29.54;38.32
42811;BME280;28457;55.680;37.656;2022-07-23T12:28:15;99699.75;;;29.60;38.30
42811;BME280;28457;55.680;37.656;2022-07-23T12:30:45;99705.94;;;29.66;38.08
42811;BME280;28457;55.680;37.656;2022-07-23T12:33:21;99708.09;;;29.69;37.58
42811;BME280;28457;55.680;37.656;2022-07-23T12:35:53;99704.66;;;29.72;36.74
42811;BME280;28457;55.680;37.656;2022-07-23T12:38:23;99703.84;;;29.71;36.07
42811;BME280;28457;55.680;37.656;2022-07-23T12:40:54;99698.94;;;29.68;35.65
42811;BME280;28457;55.680;37.656;2022-07-23T12:43:25;99693.56;;;29.72;34.45
42811;BME280;28457;55.680;37.656;2022-07-23T12:45:55;99697.78;;;29.61;34.11
42811;BME280;28457;55.680;37.656;2022-07-23T12:48:26;99691.03;;;29.53;35.55
42811;BME280;28457;55.680;37.656;2022-07-23T12:50:58;99692.03;;;29.57;36.55
42811;BME280;28457;55.680;37.656;2022-07-23T12:53:28;99689.63;;;29.64;37.93
42811;BME280;28457;55.680;37.656;2022-07-23T12:56:00;99690.94;;;29.67;35.53
42811;BME280;28457;55.680;37.656;2022-07-23T12:58:44;99690.09;;;29.66;36.42
42811;BME280;28457;55.680;37.656;2022-07-23T13:01:27;99687.03;;;29.68;35.12
42811;BME280;28457;55.680;37.656;2022-07-23T13:04:01;99695.19;;;29.73;36.83
42811;BME280;28457;55.680;37.656;2022-07-23T13:06:42;99681.00;;;29.74;34.17
42811;BME280;28457;55.680;37.656;2022-07-23T13:09:14;99683.94;;;29.78;37.27
42811;BME280;28457;55.680;37.656;2022-07-23T13:11:44;99691.94;;;29.79;36.59
42811;BME280;28457;55.680;37.656;2022-07-23T13:14:14;99673.50;;;29.83;37.29
42811;BME280;28457;55.680;37.656;2022-07-23T13:16:44;99677.41;;;29.82;36.94
42811;BME280;28457;55.680;37.656;2022-07-23T13:19:15;99673.00;;;29.81;36.78
42811;BME280;28457;55.680;37.656;2022-07-23T13:21:46;99676.59;;;29.82;36.74
42811;BME280;28457;55.680;37.656;2022-07-23T13:24:15;99685.25;;;29.80;37.20
42811;BME280;28457;55.680;37.656;2022-07-23T13:26:44;99677.72;;;29.81;37.21